Aérodrome :







RETROUVEZ-NOUS SUR...

 
LOGIN :

S'inscrire | Disclaimer

   EN    FR    IT 

 









Légende :    VFR   VFR Marginal   IFR   IFR Intensif   IFR Très Intensif
Visi : 
Plafond : 
>= 8 km
>= 3000ft
5 à 8 km
1000 à 3000 ft
1500m à 5 km
500 à 1000 ft
800 à 1500m
200 à 500 ft
< 800m
< 200 ft
Symboles :   Orages  Brouillard  Fortes neiges  Fortes précipitations  Vent > 20 kt






- Altitude de l'aérodrome : 121 ft
- Code IATA : YBX


CYBX - Lourdes De Blanc Sablon

DERNIER METAR :
  • 280917Z 07031G37KT 1/8SM -SN BLSN VV006 M11/M13 A2986 RMK SN8 PRESFR SLP118

METARs EXPIRÉS :
  • 280903Z 07028G34KT 1/8SM -SN BLSN VV008 M11/M13 A2988 RMK SN8 SLP123
  • 280843Z 07027G35KT 1/4SM -SN BLSN VV009 M11/M13 A2989 RMK SN8 SLP127
  • 280808Z 07024G31KT 2SM -SN BLSN SCT009 BKN030 BKN130 M11/M14 A2991 RMK SN2SC1SC2AC2 SLP134
  • 280700Z 07022KT 15SM DRSN FEW008 SCT030 BKN150 M11/M14 A2995 RMK SC1SC2AC4 PRESFR SLP148

TAF AMD TAF CYBX
Valide du 28 à 09h jusqu'au 28 à 20h UTC


280906Z 2809/2820 07028G40KT 1/4SM -SN BLSN VV006
TEMPO 2809/2811 1SM -SN OVC008
FM281100 07032G42KT 3/4SM -SN BLSN OVC002
TEMPO 2811/2820 1SM -SN BLSN OVC005 RMK NXT FCST BY 281400Z



MET'MAP, la Météo Aéronautique d'un coup d'oeil ! - Copyright ORBIFLY Décembre 2007 - Disclaimer

ORBIFLY MET'MAP TEAM :

Programmation & Développement : Alexandra Zaïnal
Sur une idée originale de : Baudouin d'Aumeries
Assistance à la programmation : Marc-Olivier Méhu
Soutien technique & logistique : Manuel Goepfert

Contact : metmap@orbifly.com




SOURCES & CREDITS :

   NOAA